Time;durP1;ratioP1;P1;durP2;ratioP2;P2;SDS_P1;SDS_P2;PMS_P1;PMS_P2;Temp;Humidity;BMP_temperature;BMP_pressure;BME280_temperature;BME280_humidity;BME280_pressure;Samples;Min_cycle;Max_cycle;Signal;HPM_P1;HPM_P2
2021/05/16 00:00:29;;;;;;;3.73;1.23;;;;;;;7.88;100.00;95070.91;1278658;23;20008;-66
2021/05/16 00:00:59;;;;;;;4.57;1.17;;;;;;;7.88;100.00;95071.72;1278576;23;19997;-65
2021/05/16 00:01:30;;;;;;;4.30;1.20;;;;;;;7.87;100.00;95078.09;1278675;23;20080;-65
2021/05/16 00:02:00;;;;;;;3.77;1.37;;;;;;;7.91;100.00;95076.50;1278533;23;20350;-65
2021/05/16 00:02:31;;;;;;;4.37;1.20;;;;;;;7.89;100.00;95075.19;1278650;23;20005;-65
2021/05/16 00:03:01;;;;;;;4.37;1.20;;;;;;;7.86;100.00;95078.38;1278718;23;20005;-65
2021/05/16 00:03:31;;;;;;;2.83;1.20;;;;;;;7.88;100.00;95071.72;1278748;23;20446;-65
2021/05/16 00:04:02;;;;;;;4.00;1.13;;;;;;;7.84;100.00;95075.22;1278639;23;20011;-65
2021/05/16 00:04:33;;;;;;;2.70;1.20;;;;;;;7.82;100.00;95068.28;1278708;23;20005;-65
2021/05/16 00:05:04;;;;;;;2.73;1.10;;;;;;;7.84;100.00;95075.22;1278331;23;20354;-65
2021/05/16 00:05:34;;;;;;;5.28;1.65;;;;;;;7.87;100.00;95072.78;1277786;23;20004;-65
2021/05/16 00:06:05;;;;;;;4.65;1.45;;;;;;;7.80;100.00;95066.97;1278097;23;20008;-65
2021/05/16 00:06:35;;;;;;;3.27;1.30;;;;;;;7.85;100.00;95068.81;1278177;23;20004;-65
2021/05/16 00:07:06;;;;;;;3.63;1.10;;;;;;;7.87;100.00;95075.44;1278408;23;20638;-65
2021/05/16 00:07:36;;;;;;;3.50;1.30;;;;;;;7.86;100.00;95071.19;1278582;23;20426;-65
2021/05/16 00:08:07;;;;;;;6.30;1.37;;;;;;;7.92;100.00;95071.97;1278137;23;20005;-65
2021/05/16 00:08:37;;;;;;;5.43;1.70;;;;;;;7.89;100.00;95075.19;1278049;23;20013;-65
2021/05/16 00:09:07;;;;;;;4.40;1.20;;;;;;;7.88;100.00;95074.38;1278038;23;20001;-65
2021/05/16 00:09:38;;;;;;;4.27;1.10;;;;;;;7.89;100.00;95073.31;1271933;23;20017;-65
2021/05/16 00:10:09;;;;;;;3.33;1.20;;;;;;;7.84;100.00;95075.22;1271920;23;20005;-65
2021/05/16 00:10:40;;;;;;;2.53;1.20;;;;;;;7.89;100.00;95073.31;1271808;23;20431;-65
2021/05/16 00:11:10;;;;;;;4.70;1.40;;;;;;;7.90;100.00;95066.13;1272277;23;20001;-65
2021/05/16 00:11:41;;;;;;;3.87;1.20;;;;;;;7.85;100.00;95076.81;1278200;23;20004;-65
2021/05/16 00:12:11;;;;;;;2.77;1.17;;;;;;;7.85;100.00;95074.16;1277977;23;20020;-65
2021/05/16 00:12:42;;;;;;;5.63;1.60;;;;;;;7.85;100.00;95076.81;1278089;23;20056;-65
2021/05/16 00:13:12;;;;;;;3.43;1.23;;;;;;;7.87;100.00;95079.97;1271771;23;20001;-65
2021/05/16 00:13:43;;;;;;;3.23;1.30;;;;;;;7.75;100.00;95081.09;1271983;23;20060;-65
2021/05/16 00:14:13;;;;;;;5.33;1.70;;;;;;;7.78;100.00;95075.25;1277989;23;19997;-65
2021/05/16 00:14:44;;;;;;;4.80;1.40;;;;;;;7.79;100.00;95073.38;1278084;23;20048;-65
2021/05/16 00:15:15;;;;;;;4.83;1.47;;;;;;;7.85;100.00;95079.47;1277938;23;20099;-65
2021/05/16 00:15:46;;;;;;;4.07;1.25;;;;;;;7.83;100.00;95074.44;1278218;23;20012;-65
2021/05/16 00:16:16;;;;;;;4.50;1.53;;;;;;;7.88;100.00;95076.25;1278235;23;20367;-65
2021/05/16 00:16:46;;;;;;;4.70;1.20;;;;;;;7.89;100.00;95072.53;1278224;23;20012;-65
2021/05/16 00:17:17;;;;;;;2.27;1.27;;;;;;;7.88;100.00;95077.03;1277998;23;20051;-65
2021/05/16 00:17:47;;;;;;;4.47;1.53;;;;;;;7.88;100.00;95073.56;1277995;23;20336;-65
2021/05/16 00:18:18;;;;;;;4.73;1.20;;;;;;;7.92;100.00;95075.41;1278050;23;20358;-65
2021/05/16 00:18:48;;;;;;;4.03;1.57;;;;;;;7.96;100.00;95081.00;1278548;23;20414;-65
2021/05/16 00:19:19;;;;;;;2.83;1.30;;;;;;;7.93;100.00;95077.00;1278419;23;20264;-65
2021/05/16 00:19:49;;;;;;;4.93;1.37;;;;;;;7.94;100.00;95077.81;1278356;23;20473;-65
2021/05/16 00:20:22;;;;;;;2.53;0.93;;;;;;;7.90;100.00;95076.78;1278025;23;20322;-65
2021/05/16 00:20:52;;;;;;;5.80;1.67;;;;;;;7.91;100.00;95073.84;1278091;23;20327;-65
2021/05/16 00:21:23;;;;;;;3.97;1.30;;;;;;;7.93;100.00;95073.56;1278011;23;19997;-65
2021/05/16 00:21:53;;;;;;;3.20;1.33;;;;;;;7.96;100.00;95083.66;1278038;23;20001;-65
2021/05/16 00:22:23;;;;;;;3.90;1.13;;;;;;;7.97;100.00;95072.72;1278382;23;19997;-65
2021/05/16 00:22:54;;;;;;;4.27;1.20;;;;;;;7.93;100.00;95081.53;1278565;23;20032;-65
2021/05/16 00:23:25;;;;;;;7.97;1.60;;;;;;;7.93;100.00;95079.66;1278051;23;19993;-65
2021/05/16 00:23:55;;;;;;;5.03;1.30;;;;;;;7.97;100.00;95082.56;1278071;23;20457;-65
2021/05/16 00:24:26;;;;;;;6.87;1.50;;;;;;;7.96;100.00;95081.78;1278075;23;20738;-65
2021/05/16 00:24:56;;;;;;;4.27;1.57;;;;;;;7.90;100.00;95072.25;1278191;23;20020;-65
2021/05/16 00:25:27;;;;;;;3.33;1.30;;;;;;;7.86;100.00;95076.53;1277973;23;20414;-65
2021/05/16 00:25:57;;;;;;;3.27;1.23;;;;;;;7.82;100.00;95084.25;1277880;23;20060;-65
2021/05/16 00:26:27;;;;;;;5.20;1.57;;;;;;;7.81;100.00;95079.22;1278039;23;20052;-65
2021/05/16 00:26:58;;;;;;;4.50;1.40;;;;;;;7.83;100.00;95079.75;1278444;23;20035;-65
2021/05/16 00:27:28;;;;;;;4.97;1.30;;;;;;;7.85;100.00;95082.13;1278367;23;20059;-65
2021/05/16 00:27:59;;;;;;;3.87;1.20;;;;;;;7.87;100.00;95077.31;1278368;23;20009;-65
2021/05/16 00:28:29;;;;;;;5.33;1.30;;;;;;;7.87;100.00;95074.66;1278420;23;20004;-65
2021/05/16 00:29:00;;;;;;;5.17;1.40;;;;;;;7.76;100.00;95079.22;1278393;23;20005;-65
2021/05/16 00:29:30;;;;;;;6.77;1.23;;;;;;;7.74;100.00;95074.19;1278044;23;20001;-65
2021/05/16 00:30:00;;;;;;;3.57;1.30;;;;;;;7.78;100.00;95075.25;1278034;23;20001;-65
2021/05/16 00:30:31;;;;;;;2.80;1.13;;;;;;;7.82;100.00;95075.47;1278106;23;19997;-65
2021/05/16 00:31:01;;;;;;;4.03;1.33;;;;;;;7.80;100.00;95075.75;1278017;23;20469;-65
2021/05/16 00:31:32;;;;;;;3.90;1.17;;;;;;;7.80;100.00;95074.97;1277896;23;20135;-65
2021/05/16 00:32:03;;;;;;;3.45;1.30;;;;;;;7.84;100.00;95075.22;1277991;23;20394;-65
2021/05/16 00:32:34;;;;;;;2.35;1.20;;;;;;;7.81;100.00;95074.69;1277947;23;20061;-65
2021/05/16 00:33:04;;;;;;;4.43;1.53;;;;;;;7.82;100.00;95070.16;1272368;23;19997;-65
2021/05/16 00:33:35;;;;;;;4.47;1.43;;;;;;;7.86;100.00;95071.19;1277972;23;19997;-65
2021/05/16 00:34:05;;;;;;;5.00;1.63;;;;;;;7.82;100.00;95067.50;1278016;23;19992;-65
2021/05/16 00:34:36;;;;;;;6.87;1.77;;;;;;;7.76;100.00;95074.72;1278053;23;20008;-65
2021/05/16 00:35:08;;;;;;;3.63;1.27;;;;;;;7.79;100.00;95079.50;1278525;23;20001;-65
2021/05/16 00:35:38;;;;;;;3.00;1.10;;;;;;;7.79;100.00;95068.84;1278201;23;20001;-65
2021/05/16 00:36:08;;;;;;;3.33;1.20;;;;;;;7.80;100.00;95074.97;1277986;23;19997;-65
2021/05/16 00:36:39;;;;;;;5.77;1.43;;;;;;;7.76;100.00;95074.72;1278015;23;19993;-65
2021/05/16 00:37:09;;;;;;;5.00;1.17;;;;;;;7.76;100.00;95077.38;1277923;23;19996;-65
2021/05/16 00:37:40;;;;;;;4.10;1.27;;;;;;;7.80;100.00;95074.97;1277966;23;20000;-65
2021/05/16 00:38:10;;;;;;;7.37;1.40;;;;;;;7.81;100.00;95080.00;1277879;23;19996;-65
2021/05/16 00:38:40;;;;;;;4.97;1.20;;;;;;;7.83;100.00;95071.78;1278419;23;19989;-65
2021/05/16 00:39:11;;;;;;;4.40;1.23;;;;;;;7.79;100.00;95070.72;1278453;23;20310;-65
2021/05/16 00:39:41;;;;;;;5.97;1.57;;;;;;;7.81;100.00;95077.34;1278476;23;20430;-65
2021/05/16 00:40:12;;;;;;;8.00;1.67;;;;;;;7.77;100.00;95070.19;1278348;23;20079;-65
2021/05/16 00:40:43;;;;;;;6.40;1.63;;;;;;;7.80;100.00;95070.44;1278389;23;20047;-65
2021/05/16 00:41:13;;;;;;;4.30;1.20;;;;;;;7.79;100.00;95068.84;1278366;23;20251;-65
2021/05/16 00:41:43;;;;;;;4.10;1.20;;;;;;;7.83;100.00;95069.09;1278381;23;20051;-65
2021/05/16 00:42:14;;;;;;;3.77;1.20;;;;;;;7.78;100.00;95069.94;1278335;23;20039;-65
2021/05/16 00:42:45;;;;;;;8.27;1.40;;;;;;;7.79;100.00;95068.84;1278362;23;20040;-65
2021/05/16 00:43:15;;;;;;;5.70;1.43;;;;;;;7.80;100.00;95067.78;1278335;23;20076;-65
2021/05/16 00:43:45;;;;;;;7.40;1.27;;;;;;;7.84;100.00;95067.25;1278387;23;19994;-65
2021/05/16 00:44:16;;;;;;;5.40;1.33;;;;;;;7.75;100.00;95067.81;1278591;23;19997;-65
2021/05/16 00:45:05;;;;;;;5.67;1.03;;;;;;;7.78;100.00;95064.59;1278635;23;20001;-65
2021/05/16 00:45:35;;;;;;;5.47;1.48;;;;;;;7.78;100.00;95067.28;1278149;23;20001;-65
2021/05/16 00:46:09;;;;;;;3.87;1.20;;;;;;;7.79;100.00;95070.72;1278431;23;19996;-65
2021/05/16 00:46:39;;;;;;;6.10;1.40;;;;;;;7.86;100.00;95068.53;1278459;23;20028;-65
2021/05/16 00:47:10;;;;;;;6.27;1.50;;;;;;;7.79;100.00;95066.19;1278677;23;20001;-65
2021/05/16 00:47:51;;;;;;;3.10;1.20;;;;;;;7.75;100.00;95070.47;1278264;23;20108;-65
2021/05/16 00:48:22;;;;;;;5.85;1.70;;;;;;;7.79;100.00;95068.84;1277893;23;20405;-65
2021/05/16 00:48:52;;;;;;;4.83;1.20;;;;;;;7.73;100.00;95072.63;1277460;23;19997;-65
2021/05/16 00:49:22;;;;;;;4.97;1.50;;;;;;;7.77;100.00;95076.28;1277682;23;20004;-65
2021/05/16 00:49:54;;;;;;;4.83;1.23;;;;;;;7.81;100.00;95074.69;1277886;23;20000;-65
2021/05/16 00:50:29;;;;;;;4.78;1.30;;;;;;;7.80;100.00;95070.44;1278348;23;20025;-65
2021/05/16 00:50:59;;;;;;;4.97;1.38;;;;;;;7.78;100.00;95067.28;1277945;23;20398;-65
2021/05/16 00:51:30;;;;;;;6.87;1.30;;;;;;;7.80;100.00;95069.66;1277657;23;20012;-65
2021/05/16 00:52:00;;;;;;;3.83;1.30;;;;;;;7.81;100.00;95068.56;1278048;23;20017;-65
2021/05/16 00:52:31;;;;;;;5.83;1.67;;;;;;;7.81;100.00;95069.38;1271994;23;20415;-65
2021/05/16 00:53:01;;;;;;;4.63;1.50;;;;;;;7.78;100.00;95071.78;1271810;23;20316;-65
2021/05/16 00:53:32;;;;;;;6.10;1.30;;;;;;;7.78;100.00;95066.47;1271924;23;20328;-65
2021/05/16 00:54:07;;;;;;;5.73;1.60;;;;;;;7.77;100.00;95063.00;1272144;23;20408;-65
2021/05/16 00:54:37;;;;;;;6.07;1.25;;;;;;;7.74;100.00;95068.88;1278058;23;20005;-65
2021/05/16 00:55:09;;;;;;;4.87;1.40;;;;;;;7.71;100.00;95069.41;1271966;23;20013;-65
2021/05/16 00:55:39;;;;;;;4.28;1.20;;;;;;;7.71;100.00;95064.09;1271850;23;20013;-65
2021/05/16 00:56:09;;;;;;;4.57;1.33;;;;;;;7.70;100.00;95075.81;1271836;23;19994;-65
2021/05/16 00:56:40;;;;;;;3.77;1.23;;;;;;;7.75;100.00;95072.34;1271943;23;20005;-65
2021/05/16 00:57:10;;;;;;;6.47;1.23;;;;;;;7.69;100.00;95076.88;1278459;23;20001;-65
2021/05/16 00:57:41;;;;;;;3.83;1.57;;;;;;;7.74;100.00;95073.41;1278196;23;20326;-65
2021/05/16 00:58:11;;;;;;;4.23;1.30;;;;;;;7.75;100.00;95081.09;1278313;23;19997;-65
2021/05/16 00:58:42;;;;;;;3.83;1.27;;;;;;;7.74;100.00;95068.88;1278305;23;20004;-65
2021/05/16 00:59:12;;;;;;;6.17;1.30;;;;;;;7.76;100.00;95069.38;1278499;23;20000;-65
2021/05/16 00:59:42;;;;;;;5.00;1.30;;;;;;;7.76;100.00;95077.38;1278337;23;20001;-65
2021/05/16 01:00:15;;;;;;;3.07;1.17;;;;;;;7.83;100.00;95077.09;1278381;23;20004;-65
2021/05/16 01:00:45;;;;;;;3.88;1.45;;;;;;;7.83;100.00;95079.75;1278018;23;20090;-65
2021/05/16 01:01:18;;;;;;;4.90;1.33;;;;;;;7.78;100.00;95075.25;1278308;23;20036;-65
2021/05/16 01:01:50;;;;;;;4.25;1.13;;;;;;;7.79;99.93;95071.50;1277458;23;20112;-65
2021/05/16 01:02:20;;;;;;;3.83;1.20;;;;;;;7.79;100.00;95087.47;1277829;23;20001;-65
2021/05/16 01:02:51;;;;;;;3.77;1.27;;;;;;;7.80;100.00;95074.97;1277850;23;20001;-65
2021/05/16 01:03:21;;;;;;;6.00;1.37;;;;;;;7.78;99.89;95071.78;1278099;23;20426;-65
2021/05/16 01:03:52;;;;;;;2.73;1.00;;;;;;;7.79;100.00;95071.50;1277956;23;20056;-65
2021/05/16 01:04:23;;;;;;;4.43;1.27;;;;;;;7.82;99.99;95076.25;1277993;23;20477;-65
2021/05/16 01:04:53;;;;;;;5.57;1.20;;;;;;;7.73;100.00;95075.28;1278204;23;20099;-64
2021/05/16 01:05:24;;;;;;;4.30;1.20;;;;;;;7.70;100.00;95067.84;1278167;23;20056;-65
2021/05/16 01:05:54;;;;;;;3.27;1.10;;;;;;;7.74;100.00;95071.53;1278255;23;20000;-65
2021/05/16 01:06:25;;;;;;;3.13;1.27;;;;;;;7.75;100.00;95073.13;1278075;23;19997;-65
2021/05/16 01:06:55;;;;;;;4.60;1.00;;;;;;;7.80;100.00;95074.97;1278297;23;20060;-65
2021/05/16 01:07:26;;;;;;;4.10;1.07;;;;;;;7.78;100.00;95067.28;1278246;23;20000;-65
2021/05/16 01:07:56;;;;;;;2.53;0.90;;;;;;;7.76;100.00;95069.38;1278233;23;20004;-65
2021/05/16 01:08:26;;;;;;;6.73;1.37;;;;;;;7.79;99.97;95074.16;1278389;23;20059;-65
2021/05/16 01:08:58;;;;;;;4.40;1.40;;;;;;;7.77;100.00;95072.84;1278228;23;20075;-65
2021/05/16 01:09:29;;;;;;;5.40;1.38;;;;;;;7.72;100.00;95073.66;1278186;23;20028;-65
2021/05/16 01:09:59;;;;;;;5.13;1.20;;;;;;;7.75;100.00;95075.00;1278217;23;19997;-65
2021/05/16 01:10:30;;;;;;;2.90;0.87;;;;;;;7.75;100.00;95081.09;1272399;23;20032;-65
2021/05/16 01:11:00;;;;;;;3.57;1.40;;;;;;;7.71;100.00;95072.06;1271999;23;20009;-65
2021/05/16 01:11:32;;;;;;;5.97;1.40;;;;;;;7.78;100.00;95069.94;1265669;23;19998;-65
2021/05/16 01:12:04;;;;;;;3.78;1.08;;;;;;;7.77;100.00;95075.50;1266317;23;20088;-65
2021/05/16 01:12:50;;;;;;;4.35;1.08;;;;;;;7.79;99.79;95068.84;1272785;23;20050;-65
2021/05/16 01:13:21;;;;;;;3.25;1.10;;;;;;;7.74;100.00;95068.88;1278539;23;20352;-65
2021/05/16 01:13:51;;;;;;;4.63;1.10;;;;;;;7.79;99.75;95070.72;1278447;23;20008;-65
2021/05/16 01:14:30;;;;;;;4.03;1.10;;;;;;;7.80;99.50;95074.97;1278275;23;20001;-65
2021/05/16 01:15:03;;;;;;;4.07;1.25;;;;;;;7.72;99.70;95071.00;1272041;23;20005;-65
2021/05/16 01:15:34;;;;;;;1.92;0.70;;;;;;;7.69;99.08;95076.09;1272063;23;20005;-65
2021/05/16 01:16:04;;;;;;;2.97;1.00;;;;;;;7.67;99.09;95070.22;1274362;23;20444;-65
2021/05/16 01:16:35;;;;;;;3.33;1.00;;;;;;;7.65;99.89;95067.84;1278397;23;19997;-65
2021/05/16 01:17:05;;;;;;;3.27;1.10;;;;;;;7.72;99.65;95067.53;1278046;23;20001;-65
2021/05/16 01:17:36;;;;;;;3.67;1.10;;;;;;;7.69;100.00;95068.13;1278220;23;20001;-65
2021/05/16 01:18:06;;;;;;;5.03;1.20;;;;;;;7.66;100.00;95069.44;1278184;23;20044;-64
2021/05/16 01:18:37;;;;;;;3.87;1.10;;;;;;;7.62;100.00;95068.38;1278269;23;19997;-65
2021/05/16 01:19:07;;;;;;;2.87;1.07;;;;;;;7.59;100.00;95070.81;1278518;23;20004;-65
2021/05/16 01:19:38;;;;;;;2.87;0.93;;;;;;;7.59;100.00;95063.63;1278578;23;20005;-65
2021/05/16 01:20:09;;;;;;;3.20;1.10;;;;;;;7.63;100.00;95075.31;1278126;23;20358;-64
2021/05/16 01:20:42;;;;;;;3.65;1.00;;;;;;;7.64;100.00;95068.94;1278214;23;20032;-65
2021/05/16 01:21:16;;;;;;;3.67;0.95;;;;;;;7.67;100.00;95068.38;1278204;23;20047;-65
2021/05/16 01:21:47;;;;;;;4.40;1.40;;;;;;;7.69;100.00;95074.22;1278310;23;20067;-65
2021/05/16 01:22:17;;;;;;;4.87;1.20;;;;;;;7.73;100.00;95069.16;1278461;23;20004;-65
2021/05/16 01:22:52;;;;;;;4.10;1.40;;;;;;;7.74;100.00;95074.19;1278532;23;20001;-65
2021/05/16 01:23:30;;;;;;;4.57;1.17;;;;;;;7.72;100.00;95068.34;1278162;23;20005;-65
2021/05/16 01:24:03;;;;;;;4.80;1.23;;;;;;;7.74;100.00;95063.56;1278177;23;20005;-65
2021/05/16 01:24:37;;;;;;;2.80;0.85;;;;;;;7.70;99.34;95067.84;1278260;23;19997;-65
2021/05/16 01:25:07;;;;;;;4.40;1.40;;;;;;;7.68;99.26;95069.97;1278219;23;20080;-65
2021/05/16 01:25:40;;;;;;;4.70;1.20;;;;;;;7.66;99.17;95063.31;1278366;23;20024;-65
2021/05/16 01:26:10;;;;;;;4.00;1.30;;;;;;;7.73;99.65;95066.50;1278553;23;20477;-65
2021/05/16 01:26:42;;;;;;;2.70;0.80;;;;;;;7.68;99.77;95069.97;1278517;23;19998;-65
2021/05/16 01:27:13;;;;;;;2.67;0.77;;;;;;;7.66;100.00;95058.00;1278410;23;19996;-65
2021/05/16 01:27:45;;;;;;;2.40;0.97;;;;;;;7.70;100.00;95070.50;1278304;23;19997;-65
2021/05/16 01:28:16;;;;;;;4.75;1.10;;;;;;;7.74;100.00;95065.44;1278446;23;19997;-65
2021/05/16 01:28:47;;;;;;;3.15;1.02;;;;;;;7.76;100.00;95064.06;1278551;23;20009;-65
2021/05/16 01:29:18;;;;;;;2.27;0.90;;;;;;;7.73;99.84;95069.16;1278571;23;20009;-65
2021/05/16 01:29:48;;;;;;;6.53;1.00;;;;;;;7.68;99.70;95069.97;1278285;23;20350;-64
2021/05/16 01:30:19;;;;;;;6.13;1.00;;;;;;;7.73;99.52;95064.63;1278514;23;20231;-65
2021/05/16 01:30:50;;;;;;;6.85;1.05;;;;;;;7.74;99.10;95060.91;1278596;23;19997;-65
2021/05/16 01:31:20;;;;;;;2.00;0.87;;;;;;;7.78;98.54;95061.16;1278618;23;20444;-65
2021/05/16 01:31:51;;;;;;;2.37;1.00;;;;;;;7.73;99.24;95059.31;1277979;23;20004;-65
2021/05/16 01:32:23;;;;;;;5.33;1.30;;;;;;;7.75;98.80;95067.00;1278244;23;19997;-65
2021/05/16 01:32:53;;;;;;;4.07;0.90;;;;;;;7.73;99.80;95055.88;1271995;23;20020;-65
2021/05/16 01:33:23;;;;;;;5.60;1.23;;;;;;;7.76;100.00;95063.28;1266251;23;20427;-65
2021/05/16 01:33:54;;;;;;;5.53;1.07;;;;;;;7.78;100.00;95058.50;1272077;23;20323;-64
2021/05/16 01:34:24;;;;;;;2.40;1.07;;;;;;;7.79;99.53;95054.75;1272248;23;20442;-66
2021/05/16 01:34:55;;;;;;;2.67;0.80;;;;;;;7.80;98.66;95061.66;1272161;23;20071;-65
2021/05/16 01:35:25;;;;;;;2.20;0.90;;;;;;;7.80;98.82;95057.13;1278152;23;20009;-65
2021/05/16 01:35:55;;;;;;;2.90;1.00;;;;;;;7.74;99.42;95058.25;1278277;23;20000;-65
2021/05/16 01:36:26;;;;;;;4.57;1.20;;;;;;;7.79;99.66;95060.88;1278089;23;20335;-64
2021/05/16 01:36:56;;;;;;;1.97;0.87;;;;;;;7.79;99.55;95068.06;1278498;23;20447;-65
2021/05/16 01:37:27;;;;;;;3.77;1.00;;;;;;;7.78;99.67;95056.63;1278493;23;20002;-64
2021/05/16 01:37:57;;;;;;;2.40;0.87;;;;;;;7.76;100.00;95057.97;1278465;23;20012;-65
2021/05/16 01:38:28;;;;;;;2.80;1.00;;;;;;;7.74;99.54;95052.91;1278556;23;20009;-64
2021/05/16 01:38:58;;;;;;;2.03;0.80;;;;;;;7.76;99.65;95055.28;1278504;23;20008;-64
2021/05/16 01:39:28;;;;;;;2.30;0.90;;;;;;;7.76;99.88;95057.97;1278344;23;20004;-64
2021/05/16 01:39:59;;;;;;;2.93;1.10;;;;;;;7.78;99.49;95053.97;1278543;23;20001;-64
2021/05/16 01:40:29;;;;;;;4.30;1.00;;;;;;;7.78;99.35;95061.16;1278306;23;20078;-64
2021/05/16 01:41:00;;;;;;;4.43;1.10;;;;;;;7.76;99.81;95052.63;1278462;23;20055;-65
2021/05/16 01:41:30;;;;;;;3.90;1.10;;;;;;;7.79;99.92;95052.91;1278569;23;20296;-65
2021/05/16 01:42:01;;;;;;;4.00;1.30;;;;;;;7.82;99.35;95062.16;1278499;23;20473;-64
2021/05/16 01:42:31;;;;;;;3.87;1.10;;;;;;;7.84;99.44;95057.38;1277955;23;20005;-65
2021/05/16 01:43:01;;;;;;;3.17;1.17;;;;;;;7.87;98.97;95056.03;1278155;23;20004;-65
2021/05/16 01:43:33;;;;;;;4.20;1.20;;;;;;;7.82;99.21;95054.97;1278069;23;20016;-65
2021/05/16 01:44:04;;;;;;;3.55;1.20;;;;;;;7.81;99.34;95049.94;1278096;23;20004;-65
2021/05/16 01:44:35;;;;;;;6.53;1.30;;;;;;;7.83;99.29;95050.50;1278102;23;20012;-64
2021/05/16 01:45:11;;;;;;;7.43;1.20;;;;;;;7.88;98.77;95047.78;1278176;23;20000;-64
2021/05/16 01:45:41;;;;;;;4.93;1.10;;;;;;;7.84;99.36;95048.63;1278053;23;20004;-65
2021/05/16 01:46:14;;;;;;;3.97;1.00;;;;;;;7.86;99.41;95051.78;1278320;23;19997;-65
2021/05/16 01:46:46;;;;;;;1.98;0.80;;;;;;;7.80;99.21;95049.16;1278267;23;20108;-65
2021/05/16 01:47:16;;;;;;;4.15;1.48;;;;;;;7.78;99.36;95048.66;1277665;23;20028;-64
2021/05/16 01:47:46;;;;;;;2.77;0.90;;;;;;;7.76;99.89;95047.31;1278498;23;20130;-64
2021/05/16 01:48:17;;;;;;;3.73;1.23;;;;;;;7.76;99.78;95049.97;1278498;23;20501;-65
2021/05/16 01:48:47;;;;;;;2.73;1.00;;;;;;;7.73;99.48;95053.19;1278366;23;20055;-64
2021/05/16 01:49:18;;;;;;;3.53;1.00;;;;;;;7.75;99.61;95049.19;1278525;23;20016;-64
2021/05/16 01:49:50;;;;;;;4.37;1.20;;;;;;;7.80;99.32;95046.50;1278463;23;20019;-64
2021/05/16 01:50:21;;;;;;;2.80;0.77;;;;;;;7.82;99.61;95059.50;1278403;23;20012;-64
2021/05/16 01:50:51;;;;;;;2.03;0.93;;;;;;;7.82;99.26;95054.97;1277901;23;19993;-65
2021/05/16 01:51:22;;;;;;;2.20;1.00;;;;;;;7.77;99.30;95055.00;1277975;23;20032;-65
2021/05/16 01:51:52;;;;;;;3.70;1.00;;;;;;;7.76;99.19;95057.97;1278140;23;20450;-65
2021/05/16 01:52:26;;;;;;;2.23;0.90;;;;;;;7.78;99.58;95055.84;1278200;23;20407;-65
2021/05/16 01:52:57;;;;;;;3.22;1.23;;;;;;;7.80;98.92;95057.13;1278204;23;20125;-65
2021/05/16 01:53:27;;;;;;;2.57;1.00;;;;;;;7.78;98.92;95051.31;1278097;23;20005;-64
2021/05/16 01:53:58;;;;;;;2.23;0.90;;;;;;;7.69;99.07;95054.81;1278160;23;20358;-64
2021/05/16 01:54:28;;;;;;;2.77;1.00;;;;;;;7.76;99.40;95053.44;1278077;23;20442;-64
2021/05/16 01:54:58;;;;;;;3.30;0.90;;;;;;;7.76;99.38;95056.09;1265658;23;20505;-65
2021/05/16 01:55:29;;;;;;;2.93;1.07;;;;;;;7.76;99.26;95052.63;1272027;23;20006;-65
2021/05/16 01:55:59;;;;;;;4.63;1.03;;;;;;;7.76;99.29;95058.75;1271889;23;20080;-65
2021/05/16 01:56:30;;;;;;;3.77;1.10;;;;;;;7.76;99.89;95056.09;1272293;23;20001;-64
2021/05/16 01:57:02;;;;;;;3.97;1.00;;;;;;;7.78;99.63;95055.84;1277984;23;20307;-64
2021/05/16 01:57:32;;;;;;;3.28;1.00;;;;;;;7.78;99.72;95058.50;1277748;23;20001;-65
2021/05/16 01:58:03;;;;;;;3.17;1.00;;;;;;;7.75;99.96;95057.16;1278071;23;20442;-65
2021/05/16 01:58:36;;;;;;;3.63;1.30;;;;;;;7.74;99.73;95060.09;1277863;23;20001;-65
2021/05/16 01:59:07;;;;;;;1.75;0.80;;;;;;;7.76;99.41;95057.97;1278311;23;20003;-64
2021/05/16 01:59:37;;;;;;;4.13;0.90;;;;;;;7.73;99.55;95064.63;1278084;23;20445;-65
2021/05/16 02:00:10;;;;;;;2.77;1.00;;;;;;;7.74;100.00;95065.44;1278103;23;20004;-64
2021/05/16 02:00:41;;;;;;;2.10;0.93;;;;;;;7.76;99.90;95076.56;1278182;23;20055;-65
2021/05/16 02:01:11;;;;;;;2.25;1.00;;;;;;;7.72;99.82;95071.00;1272470;23;20001;-65
2021/05/16 02:01:42;;;;;;;4.67;1.10;;;;;;;7.61;99.43;95064.16;1278016;23;20008;-64
2021/05/16 02:02:18;;;;;;;3.07;0.90;;;;;;;7.63;99.55;95064.69;1265729;23;20395;-67
2021/05/16 02:02:48;;;;;;;4.18;1.10;;;;;;;7.65;99.08;95064.41;1266944;23;20002;-65
2021/05/16 02:03:19;;;;;;;3.70;1.00;;;;;;;7.64;99.19;95060.94;1265647;23;20305;-65
2021/05/16 02:03:49;;;;;;;4.60;1.27;;;;;;;7.70;99.48;95059.06;1267088;23;20461;-65
2021/05/16 02:04:20;;;;;;;2.37;0.90;;;;;;;7.66;99.83;95060.66;1271830;23;20040;-65
2021/05/16 02:04:50;;;;;;;3.63;1.07;;;;;;;7.65;99.80;95056.44;1259723;23;20032;-65
2021/05/16 02:05:21;;;;;;;3.37;1.07;;;;;;;7.59;99.48;95060.97;1259751;23;20007;-65
2021/05/16 02:05:51;;;;;;;1.67;0.70;;;;;;;7.60;99.47;95051.13;1259524;23;20010;-65
2021/05/16 02:06:22;;;;;;;4.37;0.90;;;;;;;7.68;99.41;95059.34;1259948;23;20042;-63
2021/05/16 02:06:53;;;;;;;3.27;1.00;;;;;;;7.69;99.16;95060.94;1259849;23;20006;-63
2021/05/16 02:07:24;;;;;;;1.63;0.98;;;;;;;7.70;99.33;95049.22;1265762;23;20021;-63
2021/05/16 02:07:54;;;;;;;2.33;1.00;;;;;;;7.75;99.00;95062.47;1271310;23;20451;-65
2021/05/16 02:08:25;;;;;;;4.20;1.10;;;;;;;7.71;99.53;95048.13;1272267;23;20012;-65
2021/05/16 02:08:55;;;;;;;1.90;0.90;;;;;;;7.73;98.85;95053.19;1278162;23;20102;-65
2021/05/16 02:09:26;;;;;;;1.73;0.87;;;;;;;7.72;99.03;95051.59;1271987;23;20005;-63
2021/05/16 02:09:56;;;;;;;3.93;0.80;;;;;;;7.70;99.27;95056.41;1271986;23;20158;-65
2021/05/16 02:10:26;;;;;;;2.90;1.07;;;;;;;7.69;99.41;95058.25;1266034;23;20028;-65
2021/05/16 02:10:57;;;;;;;4.13;1.03;;;;;;;7.64;100.00;95055.63;1266246;23;20401;-65
2021/05/16 02:11:27;;;;;;;2.37;0.80;;;;;;;7.62;99.99;95047.13;1272044;23;20473;-65
2021/05/16 02:11:58;;;;;;;2.87;1.00;;;;;;;7.64;99.89;95060.16;1272885;23;20028;-66
2021/05/16 02:12:28;;;;;;;3.97;1.03;;;;;;;7.67;99.82;95048.97;1278915;23;20001;-64
2021/05/16 02:12:59;;;;;;;4.10;1.00;;;;;;;7.65;99.74;95051.91;1278535;23;20083;-66
2021/05/16 02:13:29;;;;;;;3.73;0.90;;;;;;;7.70;99.58;95051.88;1273045;23;20342;-65
2021/05/16 02:14:00;;;;;;;3.63;1.00;;;;;;;7.70;99.57;95051.88;1274203;23;20417;-65
2021/05/16 02:14:31;;;;;;;2.53;0.90;;;;;;;7.68;99.05;95051.38;1274001;23;20012;-65
2021/05/16 02:15:02;;;;;;;2.75;0.90;;;;;;;7.72;98.81;95048.94;1274256;23;20009;-65
2021/05/16 02:15:32;;;;;;;3.97;1.20;;;;;;;7.74;99.27;95047.59;1280444;23;19997;-66
2021/05/16 02:16:03;;;;;;;2.40;1.00;;;;;;;7.76;98.85;95044.66;1280182;23;19997;-66
2021/05/16 02:16:34;;;;;;;2.55;1.15;;;;;;;7.74;99.39;95050.25;1280342;23;20454;-65
2021/05/16 02:17:04;;;;;;;3.93;1.00;;;;;;;7.74;99.17;95052.91;1280236;23;20025;-65
2021/05/16 02:17:35;;;;;;;2.77;0.97;;;;;;;7.70;99.80;95043.91;1279632;23;19997;-65
2021/05/16 02:18:08;;;;;;;1.87;0.90;;;;;;;7.68;99.96;95046.03;1277736;23;19997;-65
2021/05/16 02:18:38;;;;;;;2.55;1.00;;;;;;;7.65;100.00;95049.25;1278091;23;19997;-65
2021/05/16 02:19:10;;;;;;;3.00;1.07;;;;;;;7.62;99.90;95044.47;1278252;23;20096;-65
2021/05/16 02:19:41;;;;;;;3.78;0.90;;;;;;;7.58;99.37;95047.97;1278111;23;20110;-65
2021/05/16 02:20:15;;;;;;;2.63;0.90;;;;;;;7.57;99.75;95041.81;1278119;23;20521;-65
2021/05/16 02:20:45;;;;;;;3.67;1.10;;;;;;;7.59;100.00;95045.03;1278422;23;20017;-65
2021/05/16 02:21:16;;;;;;;3.90;1.30;;;;;;;7.64;99.71;95044.19;1278518;23;20001;-65
2021/05/16 02:21:46;;;;;;;2.77;1.00;;;;;;;7.65;99.81;95043.91;1278588;23;20005;-63
2021/05/16 02:22:17;;;;;;;6.87;1.10;;;;;;;7.68;99.69;95040.72;1278480;23;20300;-64
2021/05/16 02:22:47;;;;;;;3.43;1.10;;;;;;;7.65;99.49;95040.47;1278537;23;20326;-63
2021/05/16 02:23:17;;;;;;;3.37;1.03;;;;;;;7.64;99.39;95045.00;1278674;23;20406;-64
2021/05/16 02:23:48;;;;;;;3.50;1.07;;;;;;;7.67;100.00;95039.13;1278601;23;19993;-64
2021/05/16 02:24:18;;;;;;;3.90;1.00;;;;;;;7.63;100.00;95037.31;1278157;23;20005;-64
2021/05/16 02:24:49;;;;;;;3.83;1.10;;;;;;;7.70;99.91;95035.91;1278095;23;20008;-63
2021/05/16 02:25:19;;;;;;;4.43;1.40;;;;;;;7.63;99.53;95038.09;1278071;23;20001;-63
2021/05/16 02:25:50;;;;;;;2.47;0.90;;;;;;;7.61;99.34;95040.22;1278145;23;20004;-63
2021/05/16 02:26:20;;;;;;;4.43;0.87;;;;;;;7.61;99.39;95044.75;1278454;23;20009;-64
2021/05/16 02:26:51;;;;;;;4.57;1.10;;;;;;;7.64;99.47;95038.88;1278414;23;20008;-64